sensor_id;sensor_type;location;lat;lon;timestamp;P1;durP1;ratioP1;P2;durP2;ratioP2
81221;SDS011;70691;52.492;13.420;2023-07-09T00:01:15;5.13;;;2.35;;
81221;SDS011;70691;52.492;13.420;2023-07-09T00:03:43;5.10;;;2.70;;
81221;SDS011;70691;52.492;13.420;2023-07-09T00:06:16;6.13;;;3.47;;
81221;SDS011;70691;52.492;13.420;2023-07-09T00:08:43;4.55;;;3.05;;
81221;SDS011;70691;52.492;13.420;2023-07-09T00:11:11;4.50;;;2.90;;
81221;SDS011;70691;52.492;13.420;2023-07-09T00:13:37;7.60;;;2.92;;
81221;SDS011;70691;52.492;13.420;2023-07-09T00:16:06;4.88;;;2.78;;
81221;SDS011;70691;52.492;13.420;2023-07-09T00:18:36;5.07;;;2.90;;
81221;SDS011;70691;52.492;13.420;2023-07-09T00:21:02;7.45;;;3.28;;
81221;SDS011;70691;52.492;13.420;2023-07-09T00:23:28;9.70;;;3.90;;
81221;SDS011;70691;52.492;13.420;2023-07-09T00:25:55;9.15;;;3.65;;
81221;SDS011;70691;52.492;13.420;2023-07-09T00:28:20;9.68;;;3.03;;
81221;SDS011;70691;52.492;13.420;2023-07-09T00:30:46;6.65;;;2.92;;
81221;SDS011;70691;52.492;13.420;2023-07-09T00:33:13;6.95;;;3.25;;
81221;SDS011;70691;52.492;13.420;2023-07-09T00:35:41;6.13;;;3.20;;
81221;SDS011;70691;52.492;13.420;2023-07-09T00:38:12;5.55;;;2.85;;
81221;SDS011;70691;52.492;13.420;2023-07-09T00:40:44;7.88;;;2.78;;
81221;SDS011;70691;52.492;13.420;2023-07-09T00:43:25;7.25;;;3.50;;
81221;SDS011;70691;52.492;13.420;2023-07-09T00:47:07;7.47;;;3.50;;
81221;SDS011;70691;52.492;13.420;2023-07-09T00:49:07;11.43;;;4.75;;
81221;SDS011;70691;52.492;13.420;2023-07-09T00:51:38;6.57;;;2.85;;
81221;SDS011;70691;52.492;13.420;2023-07-09T00:54:11;4.35;;;2.88;;
81221;SDS011;70691;52.492;13.420;2023-07-09T00:56:55;8.57;;;3.90;;
81221;SDS011;70691;52.492;13.420;2023-07-09T00:59:26;7.60;;;3.47;;
81221;SDS011;70691;52.492;13.420;2023-07-09T01:01:54;9.48;;;3.40;;
81221;SDS011;70691;52.492;13.420;2023-07-09T01:04:21;6.03;;;2.70;;
81221;SDS011;70691;52.492;13.420;2023-07-09T01:06:51;6.50;;;2.80;;
81221;SDS011;70691;52.492;13.420;2023-07-09T01:09:19;7.65;;;4.00;;
81221;SDS011;70691;52.492;13.420;2023-07-09T01:11:46;8.73;;;4.90;;
81221;SDS011;70691;52.492;13.420;2023-07-09T01:14:13;4.63;;;3.08;;
81221;SDS011;70691;52.492;13.420;2023-07-09T01:17:03;5.90;;;2.88;;
81221;SDS011;70691;52.492;13.420;2023-07-09T01:19:30;7.60;;;3.55;;
81221;SDS011;70691;52.492;13.420;2023-07-09T01:22:08;5.70;;;3.58;;
81221;SDS011;70691;52.492;13.420;2023-07-09T01:27:37;7.78;;;2.90;;
81221;SDS011;70691;52.492;13.420;2023-07-09T01:30:13;7.15;;;3.30;;
81221;SDS011;70691;52.492;13.420;2023-07-09T01:33:01;6.13;;;3.55;;
81221;SDS011;70691;52.492;13.420;2023-07-09T01:35:28;4.50;;;3.13;;
81221;SDS011;70691;52.492;13.420;2023-07-09T01:37:56;6.72;;;2.97;;
81221;SDS011;70691;52.492;13.420;2023-07-09T01:40:23;6.53;;;3.10;;
81221;SDS011;70691;52.492;13.420;2023-07-09T01:42:50;5.95;;;3.13;;
81221;SDS011;70691;52.492;13.420;2023-07-09T01:45:16;4.43;;;2.83;;
81221;SDS011;70691;52.492;13.420;2023-07-09T01:47:42;5.97;;;3.28;;
81221;SDS011;70691;52.492;13.420;2023-07-09T01:50:09;6.88;;;3.22;;
81221;SDS011;70691;52.492;13.420;2023-07-09T01:52:36;5.53;;;3.45;;
81221;SDS011;70691;52.492;13.420;2023-07-09T01:55:06;8.13;;;3.95;;
81221;SDS011;70691;52.492;13.420;2023-07-09T01:57:33;8.63;;;4.65;;
81221;SDS011;70691;52.492;13.420;2023-07-09T02:00:00;6.40;;;3.28;;
81221;SDS011;70691;52.492;13.420;2023-07-09T02:02:30;5.38;;;3.22;;
81221;SDS011;70691;52.492;13.420;2023-07-09T02:04:57;6.65;;;3.30;;
81221;SDS011;70691;52.492;13.420;2023-07-09T02:07:24;6.18;;;4.10;;
81221;SDS011;70691;52.492;13.420;2023-07-09T02:09:50;6.82;;;3.10;;
81221;SDS011;70691;52.492;13.420;2023-07-09T02:12:17;8.63;;;3.83;;
81221;SDS011;70691;52.492;13.420;2023-07-09T02:14:43;5.68;;;3.45;;
81221;SDS011;70691;52.492;13.420;2023-07-09T02:17:10;4.45;;;2.72;;
81221;SDS011;70691;52.492;13.420;2023-07-09T02:19:37;5.00;;;3.45;;
81221;SDS011;70691;52.492;13.420;2023-07-09T02:22:04;8.95;;;5.15;;
81221;SDS011;70691;52.492;13.420;2023-07-09T02:24:31;6.60;;;3.83;;
81221;SDS011;70691;52.492;13.420;2023-07-09T02:26:58;8.55;;;3.63;;
81221;SDS011;70691;52.492;13.420;2023-07-09T02:29:25;8.40;;;3.45;;
81221;SDS011;70691;52.492;13.420;2023-07-09T02:31:52;10.15;;;5.07;;
81221;SDS011;70691;52.492;13.420;2023-07-09T02:34:20;9.10;;;3.88;;
81221;SDS011;70691;52.492;13.420;2023-07-09T02:36:46;6.50;;;4.13;;
81221;SDS011;70691;52.492;13.420;2023-07-09T02:39:12;9.10;;;3.65;;
81221;SDS011;70691;52.492;13.420;2023-07-09T02:41:39;6.20;;;3.38;;
81221;SDS011;70691;52.492;13.420;2023-07-09T02:44:05;7.45;;;4.80;;
81221;SDS011;70691;52.492;13.420;2023-07-09T02:46:31;8.98;;;4.40;;
81221;SDS011;70691;52.492;13.420;2023-07-09T02:48:57;5.70;;;3.67;;
81221;SDS011;70691;52.492;13.420;2023-07-09T02:51:23;7.32;;;4.30;;
81221;SDS011;70691;52.492;13.420;2023-07-09T02:53:53;6.35;;;3.53;;
81221;SDS011;70691;52.492;13.420;2023-07-09T02:56:22;7.57;;;3.17;;
81221;SDS011;70691;52.492;13.420;2023-07-09T02:58:49;8.25;;;3.55;;
81221;SDS011;70691;52.492;13.420;2023-07-09T03:01:15;4.25;;;2.85;;
81221;SDS011;70691;52.492;13.420;2023-07-09T03:03:41;5.43;;;3.50;;
81221;SDS011;70691;52.492;13.420;2023-07-09T03:06:07;9.38;;;3.35;;
81221;SDS011;70691;52.492;13.420;2023-07-09T03:08:33;5.07;;;3.17;;
81221;SDS011;70691;52.492;13.420;2023-07-09T03:10:59;5.45;;;3.22;;
81221;SDS011;70691;52.492;13.420;2023-07-09T03:13:32;5.40;;;3.50;;
81221;SDS011;70691;52.492;13.420;2023-07-09T03:15:58;8.55;;;3.10;;
81221;SDS011;70691;52.492;13.420;2023-07-09T03:18:24;8.25;;;3.65;;
81221;SDS011;70691;52.492;13.420;2023-07-09T03:20:49;7.05;;;3.28;;
81221;SDS011;70691;52.492;13.420;2023-07-09T03:23:16;8.63;;;3.17;;
81221;SDS011;70691;52.492;13.420;2023-07-09T03:25:42;6.55;;;3.38;;
81221;SDS011;70691;52.492;13.420;2023-07-09T03:28:08;9.95;;;3.85;;
81221;SDS011;70691;52.492;13.420;2023-07-09T03:30:35;7.05;;;3.42;;
81221;SDS011;70691;52.492;13.420;2023-07-09T03:33:12;4.28;;;3.30;;
81221;SDS011;70691;52.492;13.420;2023-07-09T03:35:39;6.95;;;4.03;;
81221;SDS011;70691;52.492;13.420;2023-07-09T03:38:05;5.75;;;3.25;;
81221;SDS011;70691;52.492;13.420;2023-07-09T03:40:32;7.72;;;3.70;;
81221;SDS011;70691;52.492;13.420;2023-07-09T03:42:58;6.20;;;3.33;;
81221;SDS011;70691;52.492;13.420;2023-07-09T03:45:24;6.20;;;3.55;;
81221;SDS011;70691;52.492;13.420;2023-07-09T03:47:50;8.93;;;3.42;;
81221;SDS011;70691;52.492;13.420;2023-07-09T03:50:16;5.70;;;3.03;;
81221;SDS011;70691;52.492;13.420;2023-07-09T03:52:42;5.32;;;3.08;;
81221;SDS011;70691;52.492;13.420;2023-07-09T03:55:08;6.15;;;3.78;;
81221;SDS011;70691;52.492;13.420;2023-07-09T03:57:34;12.13;;;4.65;;
81221;SDS011;70691;52.492;13.420;2023-07-09T04:00:00;7.07;;;3.92;;
81221;SDS011;70691;52.492;13.420;2023-07-09T04:02:26;5.90;;;3.42;;
81221;SDS011;70691;52.492;13.420;2023-07-09T04:04:51;6.45;;;3.30;;
81221;SDS011;70691;52.492;13.420;2023-07-09T04:07:17;6.60;;;3.22;;
81221;SDS011;70691;52.492;13.420;2023-07-09T04:09:43;4.85;;;3.15;;
81221;SDS011;70691;52.492;13.420;2023-07-09T04:12:09;7.88;;;3.35;;
81221;SDS011;70691;52.492;13.420;2023-07-09T04:14:34;7.32;;;3.40;;
81221;SDS011;70691;52.492;13.420;2023-07-09T04:17:01;6.47;;;3.33;;
81221;SDS011;70691;52.492;13.420;2023-07-09T04:19:27;6.20;;;3.05;;
81221;SDS011;70691;52.492;13.420;2023-07-09T04:21:52;7.10;;;2.95;;
81221;SDS011;70691;52.492;13.420;2023-07-09T04:24:18;4.82;;;3.10;;
81221;SDS011;70691;52.492;13.420;2023-07-09T04:26:44;5.47;;;2.72;;
81221;SDS011;70691;52.492;13.420;2023-07-09T04:29:11;7.07;;;3.88;;
81221;SDS011;70691;52.492;13.420;2023-07-09T04:31:38;5.63;;;3.50;;
81221;SDS011;70691;52.492;13.420;2023-07-09T04:34:04;5.72;;;3.40;;
81221;SDS011;70691;52.492;13.420;2023-07-09T04:36:29;6.40;;;3.55;;
81221;SDS011;70691;52.492;13.420;2023-07-09T04:38:56;14.45;;;4.13;;
81221;SDS011;70691;52.492;13.420;2023-07-09T04:41:22;4.93;;;2.78;;
81221;SDS011;70691;52.492;13.420;2023-07-09T04:43:47;10.57;;;3.85;;
81221;SDS011;70691;52.492;13.420;2023-07-09T04:46:13;7.50;;;4.07;;
81221;SDS011;70691;52.492;13.420;2023-07-09T04:48:39;6.60;;;3.65;;
81221;SDS011;70691;52.492;13.420;2023-07-09T04:51:04;6.32;;;3.30;;
81221;SDS011;70691;52.492;13.420;2023-07-09T04:53:30;7.22;;;2.70;;
81221;SDS011;70691;52.492;13.420;2023-07-09T04:55:55;5.10;;;3.22;;
81221;SDS011;70691;52.492;13.420;2023-07-09T04:58:21;4.90;;;3.13;;
81221;SDS011;70691;52.492;13.420;2023-07-09T05:00:47;7.95;;;3.33;;
81221;SDS011;70691;52.492;13.420;2023-07-09T05:03:16;5.93;;;2.70;;
81221;SDS011;70691;52.492;13.420;2023-07-09T05:05:46;4.90;;;3.05;;
81221;SDS011;70691;52.492;13.420;2023-07-09T05:08:13;4.95;;;3.00;;
81221;SDS011;70691;52.492;13.420;2023-07-09T05:10:42;7.90;;;3.30;;
81221;SDS011;70691;52.492;13.420;2023-07-09T05:13:09;11.55;;;3.58;;
81221;SDS011;70691;52.492;13.420;2023-07-09T05:15:35;5.07;;;2.70;;
81221;SDS011;70691;52.492;13.420;2023-07-09T05:18:00;8.02;;;3.40;;
81221;SDS011;70691;52.492;13.420;2023-07-09T05:20:26;4.30;;;2.78;;
81221;SDS011;70691;52.492;13.420;2023-07-09T05:22:52;6.35;;;3.20;;
81221;SDS011;70691;52.492;13.420;2023-07-09T05:25:17;7.43;;;3.33;;
81221;SDS011;70691;52.492;13.420;2023-07-09T05:27:43;4.88;;;2.75;;
81221;SDS011;70691;52.492;13.420;2023-07-09T05:30:09;7.90;;;3.90;;
81221;SDS011;70691;52.492;13.420;2023-07-09T05:32:36;7.55;;;2.67;;
81221;SDS011;70691;52.492;13.420;2023-07-09T05:35:02;4.07;;;2.92;;
81221;SDS011;70691;52.492;13.420;2023-07-09T05:37:28;4.50;;;2.67;;
81221;SDS011;70691;52.492;13.420;2023-07-09T05:39:54;6.40;;;3.53;;
81221;SDS011;70691;52.492;13.420;2023-07-09T05:42:19;4.45;;;2.80;;
81221;SDS011;70691;52.492;13.420;2023-07-09T05:44:45;5.75;;;2.78;;
81221;SDS011;70691;52.492;13.420;2023-07-09T05:47:11;5.95;;;2.50;;
81221;SDS011;70691;52.492;13.420;2023-07-09T05:49:37;4.63;;;3.03;;
81221;SDS011;70691;52.492;13.420;2023-07-09T05:52:04;8.90;;;4.45;;
81221;SDS011;70691;52.492;13.420;2023-07-09T05:54:30;4.45;;;3.03;;
81221;SDS011;70691;52.492;13.420;2023-07-09T05:56:56;5.55;;;2.92;;
81221;SDS011;70691;52.492;13.420;2023-07-09T05:59:21;4.35;;;2.90;;
81221;SDS011;70691;52.492;13.420;2023-07-09T06:01:47;6.03;;;3.00;;
81221;SDS011;70691;52.492;13.420;2023-07-09T06:04:13;4.75;;;3.10;;
81221;SDS011;70691;52.492;13.420;2023-07-09T06:06:39;11.05;;;3.28;;
81221;SDS011;70691;52.492;13.420;2023-07-09T06:09:06;6.60;;;3.60;;
81221;SDS011;70691;52.492;13.420;2023-07-09T06:11:35;6.50;;;2.88;;
81221;SDS011;70691;52.492;13.420;2023-07-09T06:14:00;9.02;;;3.53;;
81221;SDS011;70691;52.492;13.420;2023-07-09T06:16:26;5.47;;;3.35;;
81221;SDS011;70691;52.492;13.420;2023-07-09T06:18:52;6.97;;;3.25;;
81221;SDS011;70691;52.492;13.420;2023-07-09T06:21:18;6.78;;;3.00;;
81221;SDS011;70691;52.492;13.420;2023-07-09T06:23:45;7.63;;;3.15;;
81221;SDS011;70691;52.492;13.420;2023-07-09T06:26:11;4.88;;;2.47;;
81221;SDS011;70691;52.492;13.420;2023-07-09T06:28:36;5.82;;;3.25;;
81221;SDS011;70691;52.492;13.420;2023-07-09T06:31:02;4.95;;;2.92;;
81221;SDS011;70691;52.492;13.420;2023-07-09T06:33:29;3.95;;;3.03;;
81221;SDS011;70691;52.492;13.420;2023-07-09T06:35:59;3.90;;;2.47;;
81221;SDS011;70691;52.492;13.420;2023-07-09T06:38:26;8.10;;;3.55;;
81221;SDS011;70691;52.492;13.420;2023-07-09T06:40:53;4.43;;;2.75;;
81221;SDS011;70691;52.492;13.420;2023-07-09T06:43:19;7.03;;;3.45;;
81221;SDS011;70691;52.492;13.420;2023-07-09T06:45:55;6.82;;;3.42;;
81221;SDS011;70691;52.492;13.420;2023-07-09T06:48:22;8.55;;;3.70;;
81221;SDS011;70691;52.492;13.420;2023-07-09T06:50:49;6.43;;;3.60;;
81221;SDS011;70691;52.492;13.420;2023-07-09T06:53:15;5.80;;;2.97;;
81221;SDS011;70691;52.492;13.420;2023-07-09T06:55:41;7.22;;;3.13;;
81221;SDS011;70691;52.492;13.420;2023-07-09T06:58:07;7.13;;;3.10;;
81221;SDS011;70691;52.492;13.420;2023-07-09T07:00:34;5.50;;;3.83;;
81221;SDS011;70691;52.492;13.420;2023-07-09T07:03:00;5.38;;;2.90;;
81221;SDS011;70691;52.492;13.420;2023-07-09T07:05:26;5.07;;;2.92;;
81221;SDS011;70691;52.492;13.420;2023-07-09T07:07:52;3.70;;;2.75;;
81221;SDS011;70691;52.492;13.420;2023-07-09T07:10:18;5.95;;;3.35;;
81221;SDS011;70691;52.492;13.420;2023-07-09T07:12:46;4.43;;;3.13;;
81221;SDS011;70691;52.492;13.420;2023-07-09T07:15:14;6.60;;;3.67;;
81221;SDS011;70691;52.492;13.420;2023-07-09T07:17:41;4.68;;;3.15;;
81221;SDS011;70691;52.492;13.420;2023-07-09T07:20:07;8.57;;;3.13;;
81221;SDS011;70691;52.492;13.420;2023-07-09T07:22:34;7.50;;;2.80;;
81221;SDS011;70691;52.492;13.420;2023-07-09T07:25:00;4.00;;;2.60;;
81221;SDS011;70691;52.492;13.420;2023-07-09T07:27:26;5.03;;;3.42;;
81221;SDS011;70691;52.492;13.420;2023-07-09T07:29:51;6.75;;;2.95;;
81221;SDS011;70691;52.492;13.420;2023-07-09T07:32:18;4.35;;;3.10;;
81221;SDS011;70691;52.492;13.420;2023-07-09T07:34:44;6.57;;;3.05;;
81221;SDS011;70691;52.492;13.420;2023-07-09T07:37:12;6.18;;;3.08;;
81221;SDS011;70691;52.492;13.420;2023-07-09T07:39:38;5.38;;;3.05;;
81221;SDS011;70691;52.492;13.420;2023-07-09T07:42:03;6.63;;;3.17;;
81221;SDS011;70691;52.492;13.420;2023-07-09T07:44:29;4.65;;;2.90;;
81221;SDS011;70691;52.492;13.420;2023-07-09T07:46:55;9.73;;;3.72;;
81221;SDS011;70691;52.492;13.420;2023-07-09T07:49:21;8.98;;;3.53;;
81221;SDS011;70691;52.492;13.420;2023-07-09T07:51:47;6.00;;;3.78;;
81221;SDS011;70691;52.492;13.420;2023-07-09T07:54:13;7.55;;;4.40;;
81221;SDS011;70691;52.492;13.420;2023-07-09T07:56:39;7.95;;;3.38;;
81221;SDS011;70691;52.492;13.420;2023-07-09T07:59:05;3.90;;;2.80;;
81221;SDS011;70691;52.492;13.420;2023-07-09T08:01:31;8.40;;;3.13;;
81221;SDS011;70691;52.492;13.420;2023-07-09T08:04:00;8.80;;;3.58;;
81221;SDS011;70691;52.492;13.420;2023-07-09T08:06:26;4.82;;;3.42;;
81221;SDS011;70691;52.492;13.420;2023-07-09T08:08:51;4.95;;;2.88;;
81221;SDS011;70691;52.492;13.420;2023-07-09T08:11:17;4.72;;;3.40;;
81221;SDS011;70691;52.492;13.420;2023-07-09T08:13:43;7.95;;;3.80;;
81221;SDS011;70691;52.492;13.420;2023-07-09T08:16:08;5.63;;;3.92;;
81221;SDS011;70691;52.492;13.420;2023-07-09T08:18:36;8.23;;;3.20;;
81221;SDS011;70691;52.492;13.420;2023-07-09T08:21:02;7.95;;;3.75;;
81221;SDS011;70691;52.492;13.420;2023-07-09T08:23:28;5.53;;;3.05;;
81221;SDS011;70691;52.492;13.420;2023-07-09T08:25:55;8.68;;;4.18;;
81221;SDS011;70691;52.492;13.420;2023-07-09T08:28:21;10.35;;;3.53;;
81221;SDS011;70691;52.492;13.420;2023-07-09T08:30:47;5.22;;;3.55;;
81221;SDS011;70691;52.492;13.420;2023-07-09T08:33:13;5.10;;;3.53;;
81221;SDS011;70691;52.492;13.420;2023-07-09T08:35:41;8.82;;;3.65;;
81221;SDS011;70691;52.492;13.420;2023-07-09T08:38:10;4.70;;;3.40;;
81221;SDS011;70691;52.492;13.420;2023-07-09T08:40:39;6.55;;;3.58;;
81221;SDS011;70691;52.492;13.420;2023-07-09T08:43:10;4.10;;;2.72;;
81221;SDS011;70691;52.492;13.420;2023-07-09T08:45:57;6.82;;;3.95;;
81221;SDS011;70691;52.492;13.420;2023-07-09T08:48:33;6.25;;;3.20;;
81221;SDS011;70691;52.492;13.420;2023-07-09T08:51:03;4.50;;;2.75;;
81221;SDS011;70691;52.492;13.420;2023-07-09T08:53:36;7.18;;;3.35;;
81221;SDS011;70691;52.492;13.420;2023-07-09T08:56:08;5.80;;;3.20;;
81221;SDS011;70691;52.492;13.420;2023-07-09T08:58:35;6.17;;;3.30;;
81221;SDS011;70691;52.492;13.420;2023-07-09T09:01:03;5.85;;;3.47;;
81221;SDS011;70691;52.492;13.420;2023-07-09T09:03:35;7.03;;;3.05;;
81221;SDS011;70691;52.492;13.420;2023-07-09T09:06:09;7.75;;;3.40;;
81221;SDS011;70691;52.492;13.420;2023-07-09T09:11:43;9.25;;;3.38;;
81221;SDS011;70691;52.492;13.420;2023-07-09T09:16:58;8.60;;;4.18;;
81221;SDS011;70691;52.492;13.420;2023-07-09T09:19:33;4.75;;;3.88;;
81221;SDS011;70691;52.492;13.420;2023-07-09T09:22:13;5.40;;;2.95;;
81221;SDS011;70691;52.492;13.420;2023-07-09T09:27:37;7.15;;;3.30;;
81221;SDS011;70691;52.492;13.420;2023-07-09T09:30:03;8.27;;;3.35;;
81221;SDS011;70691;52.492;13.420;2023-07-09T09:32:31;4.10;;;3.50;;
81221;SDS011;70691;52.492;13.420;2023-07-09T09:35:16;5.07;;;3.03;;
81221;SDS011;70691;52.492;13.420;2023-07-09T09:41:04;3.70;;;2.80;;
81221;SDS011;70691;52.492;13.420;2023-07-09T09:45:59;6.90;;;3.10;;
81221;SDS011;70691;52.492;13.420;2023-07-09T09:48:31;6.38;;;2.78;;
81221;SDS011;70691;52.492;13.420;2023-07-09T09:50:58;6.88;;;2.85;;
81221;SDS011;70691;52.492;13.420;2023-07-09T09:53:26;6.38;;;3.00;;
81221;SDS011;70691;52.492;13.420;2023-07-09T09:55:55;8.68;;;2.78;;
81221;SDS011;70691;52.492;13.420;2023-07-09T09:58:26;9.82;;;3.83;;
81221;SDS011;70691;52.492;13.420;2023-07-09T10:00:55;7.18;;;2.97;;
81221;SDS011;70691;52.492;13.420;2023-07-09T10:03:32;5.38;;;2.55;;
81221;SDS011;70691;52.492;13.420;2023-07-09T10:05:59;5.15;;;2.92;;
81221;SDS011;70691;52.492;13.420;2023-07-09T10:11:08;5.65;;;3.80;;
81221;SDS011;70691;52.492;13.420;2023-07-09T10:13:42;9.15;;;4.50;;
81221;SDS011;70691;52.492;13.420;2023-07-09T10:16:33;8.27;;;3.83;;
81221;SDS011;70691;52.492;13.420;2023-07-09T10:19:12;6.95;;;3.65;;
81221;SDS011;70691;52.492;13.420;2023-07-09T10:21:46;6.32;;;3.53;;
81221;SDS011;70691;52.492;13.420;2023-07-09T10:27:09;6.85;;;3.35;;
81221;SDS011;70691;52.492;13.420;2023-07-09T10:30:03;6.97;;;4.05;;
81221;SDS011;70691;52.492;13.420;2023-07-09T10:40:36;5.40;;;3.23;;
81221;SDS011;70691;52.492;13.420;2023-07-09T10:43:09;5.97;;;3.60;;
81221;SDS011;70691;52.492;13.420;2023-07-09T10:45:42;5.38;;;4.00;;
81221;SDS011;70691;52.492;13.420;2023-07-09T10:51:17;4.65;;;3.55;;
81221;SDS011;70691;52.492;13.420;2023-07-09T11:01:43;12.57;;;4.53;;
81221;SDS011;70691;52.492;13.420;2023-07-09T11:04:19;5.40;;;2.95;;
81221;SDS011;70691;52.492;13.420;2023-07-09T11:06:59;5.68;;;4.00;;
81221;SDS011;70691;52.492;13.420;2023-07-09T11:09:33;5.22;;;3.47;;
81221;SDS011;70691;52.492;13.420;2023-07-09T11:12:18;5.43;;;4.05;;
81221;SDS011;70691;52.492;13.420;2023-07-09T11:17:43;5.22;;;3.33;;
81221;SDS011;70691;52.492;13.420;2023-07-09T11:20:54;5.20;;;3.70;;
81221;SDS011;70691;52.492;13.420;2023-07-09T11:23:03;6.05;;;3.83;;
81221;SDS011;70691;52.492;13.420;2023-07-09T11:25:41;8.93;;;3.60;;
81221;SDS011;70691;52.492;13.420;2023-07-09T11:28:11;9.05;;;4.85;;
81221;SDS011;70691;52.492;13.420;2023-07-09T11:30:53;5.45;;;3.42;;
81221;SDS011;70691;52.492;13.420;2023-07-09T11:33:29;7.13;;;3.95;;
81221;SDS011;70691;52.492;13.420;2023-07-09T11:36:08;5.63;;;3.70;;
81221;SDS011;70691;52.492;13.420;2023-07-09T11:38:45;5.40;;;4.70;;
81221;SDS011;70691;52.492;13.420;2023-07-09T11:43:52;8.77;;;5.63;;
81221;SDS011;70691;52.492;13.420;2023-07-09T11:46:18;7.90;;;4.50;;
81221;SDS011;70691;52.492;13.420;2023-07-09T11:48:49;6.00;;;4.43;;
81221;SDS011;70691;52.492;13.420;2023-07-09T11:51:20;5.65;;;4.70;;
81221;SDS011;70691;52.492;13.420;2023-07-09T11:53:56;10.55;;;4.93;;
81221;SDS011;70691;52.492;13.420;2023-07-09T11:56:23;6.25;;;5.38;;
81221;SDS011;70691;52.492;13.420;2023-07-09T11:58:56;9.10;;;5.68;;
81221;SDS011;70691;52.492;13.420;2023-07-09T12:01:27;9.13;;;6.05;;
81221;SDS011;70691;52.492;13.420;2023-07-09T12:04:01;9.73;;;6.63;;
81221;SDS011;70691;52.492;13.420;2023-07-09T12:06:28;8.80;;;6.80;;
81221;SDS011;70691;52.492;13.420;2023-07-09T12:08:56;7.87;;;6.53;;
81221;SDS011;70691;52.492;13.420;2023-07-09T12:13:49;9.25;;;6.25;;
81221;SDS011;70691;52.492;13.420;2023-07-09T12:16:28;8.32;;;5.95;;
81221;SDS011;70691;52.492;13.420;2023-07-09T12:18:57;7.95;;;6.28;;
81221;SDS011;70691;52.492;13.420;2023-07-09T12:21:24;10.02;;;6.10;;
81221;SDS011;70691;52.492;13.420;2023-07-09T12:23:50;7.90;;;6.40;;
81221;SDS011;70691;52.492;13.420;2023-07-09T12:26:18;7.88;;;5.57;;
81221;SDS011;70691;52.492;13.420;2023-07-09T12:28:56;8.95;;;6.40;;
81221;SDS011;70691;52.492;13.420;2023-07-09T12:31:27;7.45;;;5.22;;
81221;SDS011;70691;52.492;13.420;2023-07-09T12:33:55;6.70;;;5.65;;
81221;SDS011;70691;52.492;13.420;2023-07-09T12:36:23;7.80;;;4.78;;
81221;SDS011;70691;52.492;13.420;2023-07-09T12:38:51;6.90;;;5.28;;
81221;SDS011;70691;52.492;13.420;2023-07-09T12:41:40;6.78;;;4.55;;
81221;SDS011;70691;52.492;13.420;2023-07-09T12:44:15;7.45;;;4.63;;
81221;SDS011;70691;52.492;13.420;2023-07-09T12:46:46;7.67;;;4.47;;
81221;SDS011;70691;52.492;13.420;2023-07-09T12:49:43;9.18;;;4.63;;
81221;SDS011;70691;52.492;13.420;2023-07-09T12:52:09;7.60;;;5.18;;
81221;SDS011;70691;52.492;13.420;2023-07-09T12:54:41;9.40;;;4.25;;
81221;SDS011;70691;52.492;13.420;2023-07-09T12:57:13;5.78;;;4.40;;
81221;SDS011;70691;52.492;13.420;2023-07-09T12:59:42;7.00;;;4.38;;
81221;SDS011;70691;52.492;13.420;2023-07-09T13:02:17;10.80;;;6.70;;
81221;SDS011;70691;52.492;13.420;2023-07-09T13:04:45;9.05;;;5.57;;
81221;SDS011;70691;52.492;13.420;2023-07-09T13:09:50;9.80;;;5.05;;
81221;SDS011;70691;52.492;13.420;2023-07-09T13:12:17;8.73;;;4.50;;
81221;SDS011;70691;52.492;13.420;2023-07-09T13:14:46;7.95;;;4.50;;
81221;SDS011;70691;52.492;13.420;2023-07-09T13:17:18;5.97;;;4.15;;
81221;SDS011;70691;52.492;13.420;2023-07-09T13:19:44;10.77;;;6.20;;
81221;SDS011;70691;52.492;13.420;2023-07-09T13:22:13;4.43;;;3.58;;
81221;SDS011;70691;52.492;13.420;2023-07-09T13:24:42;9.77;;;4.32;;
81221;SDS011;70691;52.492;13.420;2023-07-09T13:27:14;6.28;;;3.90;;
81221;SDS011;70691;52.492;13.420;2023-07-09T13:29:41;4.82;;;3.95;;
81221;SDS011;70691;52.492;13.420;2023-07-09T13:32:10;5.22;;;3.67;;
81221;SDS011;70691;52.492;13.420;2023-07-09T13:34:40;10.00;;;5.15;;
81221;SDS011;70691;52.492;13.420;2023-07-09T13:37:14;9.38;;;4.38;;
81221;SDS011;70691;52.492;13.420;2023-07-09T13:39:41;6.05;;;4.30;;
81221;SDS011;70691;52.492;13.420;2023-07-09T13:42:12;5.97;;;4.07;;
81221;SDS011;70691;52.492;13.420;2023-07-09T13:44:40;5.43;;;3.97;;
81221;SDS011;70691;52.492;13.420;2023-07-09T13:47:17;5.50;;;3.65;;
81221;SDS011;70691;52.492;13.420;2023-07-09T13:49:44;8.85;;;3.70;;
81221;SDS011;70691;52.492;13.420;2023-07-09T13:52:16;6.28;;;4.38;;
81221;SDS011;70691;52.492;13.420;2023-07-09T13:54:44;6.82;;;4.20;;
81221;SDS011;70691;52.492;13.420;2023-07-09T13:57:13;8.18;;;4.03;;
81221;SDS011;70691;52.492;13.420;2023-07-09T13:59:41;6.68;;;4.15;;
81221;SDS011;70691;52.492;13.420;2023-07-09T14:02:15;9.65;;;4.15;;
81221;SDS011;70691;52.492;13.420;2023-07-09T14:04:42;9.25;;;4.25;;
81221;SDS011;70691;52.492;13.420;2023-07-09T14:07:12;5.53;;;4.13;;
81221;SDS011;70691;52.492;13.420;2023-07-09T14:09:52;7.78;;;4.15;;
81221;SDS011;70691;52.492;13.420;2023-07-09T14:12:18;8.57;;;3.97;;
81221;SDS011;70691;52.492;13.420;2023-07-09T14:14:44;9.98;;;5.13;;
81221;SDS011;70691;52.492;13.420;2023-07-09T14:17:12;7.68;;;4.30;;
81221;SDS011;70691;52.492;13.420;2023-07-09T14:19:38;8.82;;;4.10;;
81221;SDS011;70691;52.492;13.420;2023-07-09T14:22:09;5.80;;;3.90;;
81221;SDS011;70691;52.492;13.420;2023-07-09T14:24:46;11.10;;;3.80;;
81221;SDS011;70691;52.492;13.420;2023-07-09T14:27:11;4.90;;;3.83;;
81221;SDS011;70691;52.492;13.420;2023-07-09T14:29:37;7.57;;;4.22;;
81221;SDS011;70691;52.492;13.420;2023-07-09T14:32:08;5.40;;;3.70;;
81221;SDS011;70691;52.492;13.420;2023-07-09T14:35:02;5.22;;;3.85;;
81221;SDS011;70691;52.492;13.420;2023-07-09T14:37:34;5.72;;;3.78;;
81221;SDS011;70691;52.492;13.420;2023-07-09T14:40:00;12.13;;;4.25;;
81221;SDS011;70691;52.492;13.420;2023-07-09T14:42:25;7.50;;;4.53;;
81221;SDS011;70691;52.492;13.420;2023-07-09T14:44:51;7.97;;;4.50;;
81221;SDS011;70691;52.492;13.420;2023-07-09T14:47:20;13.13;;;6.47;;
81221;SDS011;70691;52.492;13.420;2023-07-09T14:52:13;6.32;;;4.07;;
81221;SDS011;70691;52.492;13.420;2023-07-09T14:54:42;7.40;;;5.88;;
81221;SDS011;70691;52.492;13.420;2023-07-09T14:57:42;8.30;;;3.97;;
81221;SDS011;70691;52.492;13.420;2023-07-09T15:00:01;7.53;;;4.63;;
81221;SDS011;70691;52.492;13.420;2023-07-09T15:02:35;6.82;;;3.88;;
81221;SDS011;70691;52.492;13.420;2023-07-09T15:05:05;6.57;;;4.00;;
81221;SDS011;70691;52.492;13.420;2023-07-09T15:07:37;8.57;;;4.40;;
81221;SDS011;70691;52.492;13.420;2023-07-09T15:10:03;9.20;;;5.50;;
81221;SDS011;70691;52.492;13.420;2023-07-09T15:12:34;7.10;;;4.47;;
81221;SDS011;70691;52.492;13.420;2023-07-09T15:20:16;5.40;;;3.65;;
81221;SDS011;70691;52.492;13.420;2023-07-09T15:22:44;7.53;;;4.35;;
81221;SDS011;70691;52.492;13.420;2023-07-09T15:25:29;10.00;;;4.03;;
81221;SDS011;70691;52.492;13.420;2023-07-09T15:27:56;7.18;;;4.20;;
81221;SDS011;70691;52.492;13.420;2023-07-09T15:30:23;6.43;;;4.35;;
81221;SDS011;70691;52.492;13.420;2023-07-09T15:32:58;7.47;;;4.80;;
81221;SDS011;70691;52.492;13.420;2023-07-09T15:35:26;6.60;;;5.00;;
81221;SDS011;70691;52.492;13.420;2023-07-09T15:37:55;7.72;;;3.58;;
81221;SDS011;70691;52.492;13.420;2023-07-09T15:40:23;7.28;;;4.63;;
81221;SDS011;70691;52.492;13.420;2023-07-09T15:42:54;6.38;;;3.72;;
81221;SDS011;70691;52.492;13.420;2023-07-09T15:45:21;7.88;;;4.18;;